Terminal Aerodrome Forecast
Issued by NWS Houston/Galveston, TX

Home | Current Version | Previous Version | Text Only | Print | Product List | Glossary On
Versions: 1 2 3 4 5 6 7 8 9 10 11 12 13 14 15 16 17 18 19 20 21 22 23 24 25 26 27 28 29 30 31 32 33 34 35 36 37 38 39 40 41 42 43 44 45 46 47 48 49 50
544
FTUS44 KHGX 192358 AAA
TAFGLS
TAF AMD
KGLS 192358Z 2000/2024 13016KT 4SM BR SCT007 OVC060
     FM200300 15015KT 2SM BR OVC007
     FM200700 14015KT 1SM BR OVC003
      TEMPO 2010/2013 1/2SM FG OVC001
     FM201600 14012KT 2SM BR BKN005 OVC012
     FM201800 15016KT 6SM BR FEW009 BKN050 BKN120=

USA.gov is the U.S. government's official web portal to all federal, state and local government web resources and services.